Time;durP1;ratioP1;P1;durP2;ratioP2;P2;SDS_P1;SDS_P2;PMS_P1;PMS_P2;Temp;Humidity;BMP_temperature;BMP_pressure;BME280_temperature;BME280_humidity;BME280_pressure;Samples;Min_cycle;Max_cycle;Signal;HPM_P1;HPM_P2
2022/09/16 00:00:42;;;;;;;0.20;0.10;;;;;;;;;;4990561;28;20041;-90
2022/09/16 00:03:08;;;;;;;0.20;0.10;;;;;;;;;;4981451;28;20068;-88
2022/09/16 00:05:36;;;;;;;0.20;0.10;;;;;;;;;;4984612;28;22423;-88
2022/09/16 00:08:02;;;;;;;0.20;0.10;;;;;;;;;;4980975;28;20056;-87
2022/09/16 00:10:29;;;;;;;0.20;0.10;;;;;;;;;;4989065;28;20108;-87
2022/09/16 00:12:55;;;;;;;0.20;0.10;;;;;;;;;;4978665;28;20048;-88
2022/09/16 00:15:22;;;;;;;0.20;0.10;;;;;;;;;;4988116;28;20042;-88
2022/09/16 00:17:52;;;;;;;0.20;0.00;;;;;;;;;;4990681;28;20049;-89
2022/09/16 00:20:21;;;;;;;0.20;0.10;;;;;;;;;;4987158;28;20038;-90
2022/09/16 00:22:48;;;;;;;0.20;0.10;;;;;;;;;;4996554;28;20064;-89
2022/09/16 00:25:15;;;;;;;0.20;0.10;;;;;;;;;;4984293;28;20062;-86
2022/09/16 00:27:41;;;;;;;0.20;0.10;;;;;;;;;;4976612;28;20505;-88
2022/09/16 00:30:12;;;;;;;0.20;0.10;;;;;;;;;;4974606;23;20046;-87
2022/09/16 00:33:04;;;;;;;0.20;0.10;;;;;;;;;;4933407;28;20062;-87
2022/09/16 00:35:30;;;;;;;0.20;0.10;;;;;;;;;;4936683;28;20047;-87
2022/09/16 00:37:58;;;;;;;0.20;0.10;;;;;;;;;;4915104;28;20136;-87
2022/09/16 00:43:52;;;;;;;0.20;0.10;;;;;;;;;;4943792;28;20122;-89
2022/09/16 00:46:41;;;;;;;0.20;0.00;;;;;;;;;;4928599;28;20035;-87
2022/09/16 00:49:13;;;;;;;0.20;0.10;;;;;;;;;;4913007;28;20054;-86
2022/09/16 00:51:48;;;;;;;0.20;0.10;;;;;;;;;;4924047;28;20801;-89
2022/09/16 00:54:24;;;;;;;0.20;0.10;;;;;;;;;;4935906;28;20039;-89
2022/09/16 00:56:57;;;;;;;0.20;0.10;;;;;;;;;;4942506;28;20047;-89
2022/09/16 00:59:34;;;;;;;0.20;0.10;;;;;;;;;;4925381;28;20506;-88
2022/09/16 01:02:07;;;;;;;0.20;0.10;;;;;;;;;;4928078;28;20122;-89
2022/09/16 01:04:45;;;;;;;0.20;0.10;;;;;;;;;;4950991;28;20046;-91
2022/09/16 01:07:15;;;;;;;0.20;0.10;;;;;;;;;;4977561;28;20454;-89
2022/09/16 01:09:46;;;;;;;0.20;0.10;;;;;;;;;;4965775;28;20517;-90
2022/09/16 01:12:12;;;;;;;0.20;0.10;;;;;;;;;;4961914;28;20183;-86
2022/09/16 01:15:07;;;;;;;;;;;;;;;;;;;;;
2022/09/16 01:17:55;;;;;;;0.20;0.10;;;;;;;;;;4976636;28;20034;-89
2022/09/16 01:20:40;;;;;;;0.20;0.10;;;;;;;;;;4965647;28;20133;-89
2022/09/16 01:23:30;;;;;;;0.20;0.10;;;;;;;;;;4966679;28;20038;-89
2022/09/16 01:29:36;;;;;;;0.20;0.10;;;;;;;;;;4929889;28;20134;-88
2022/09/16 01:32:02;;;;;;;0.20;0.00;;;;;;;;;;4961099;28;20038;-88
2022/09/16 01:34:56;;;;;;;0.20;0.10;;;;;;;;;;4954342;28;20165;-86
2022/09/16 01:37:22;;;;;;;0.20;0.10;;;;;;;;;;4938351;28;20046;-85
2022/09/16 01:40:04;;;;;;;0.20;0.10;;;;;;;;;;4962501;28;20179;-87
2022/09/16 01:42:49;;;;;;;0.20;0.10;;;;;;;;;;4963267;28;20042;-87
2022/09/16 01:45:19;;;;;;;0.20;0.10;;;;;;;;;;4970604;28;20035;-87
2022/09/16 01:48:04;;;;;;;0.20;0.10;;;;;;;;;;4974318;28;20695;-86
2022/09/16 01:50:39;;;;;;;0.20;0.10;;;;;;;;;;4968502;28;20043;-87
2022/09/16 01:53:23;;;;;;;0.20;0.10;;;;;;;;;;4957971;28;20031;-88
2022/09/16 01:56:22;;;;;;;0.20;0.10;;;;;;;;;;4973011;28;20042;-90
2022/09/16 01:58:55;;;;;;;0.20;0.10;;;;;;;;;;4942866;28;20138;-88
2022/09/16 02:01:25;;;;;;;0.20;0.05;;;;;;;;;;4958949;28;20421;-86
2022/09/16 02:03:55;;;;;;;0.20;0.10;;;;;;;;;;4969166;28;20038;-86
2022/09/16 02:06:23;;;;;;;0.20;0.10;;;;;;;;;;4960430;28;20049;-89
2022/09/16 02:08:57;;;;;;;0.20;0.00;;;;;;;;;;4962696;28;20042;-84
2022/09/16 02:11:24;;;;;;;0.20;0.10;;;;;;;;;;4975372;28;20043;-89
2022/09/16 02:13:55;;;;;;;0.20;0.00;;;;;;;;;;4976356;28;20073;-89
2022/09/16 02:16:24;;;;;;;0.20;0.20;;;;;;;;;;4967626;28;21588;-90
2022/09/16 02:18:53;;;;;;;0.20;0.00;;;;;;;;;;4978679;28;20121;-90
2022/09/16 02:21:20;;;;;;;0.20;0.10;;;;;;;;;;4964226;28;20039;-91
2022/09/16 02:23:48;;;;;;;0.20;0.10;;;;;;;;;;4967993;28;20189;-89
2022/09/16 02:26:18;;;;;;;0.20;0.10;;;;;;;;;;4968243;28;20034;-88
2022/09/16 02:28:45;;;;;;;0.20;0.10;;;;;;;;;;4982735;28;20041;-90
2022/09/16 02:31:13;;;;;;;0.20;0.10;;;;;;;;;;4964015;28;20089;-91
2022/09/16 02:34:01;;;;;;;0.20;0.00;;;;;;;;;;4967002;28;20066;-91
2022/09/16 02:36:27;;;;;;;0.20;0.05;;;;;;;;;;4966337;28;20070;-87
2022/09/16 02:38:56;;;;;;;0.20;0.10;;;;;;;;;;4960770;28;20045;-86
2022/09/16 02:41:23;;;;;;;0.20;0.10;;;;;;;;;;4972244;28;20050;-87
2022/09/16 02:43:49;;;;;;;0.20;0.10;;;;;;;;;;4962966;28;20731;-87
2022/09/16 02:46:21;;;;;;;0.20;0.10;;;;;;;;;;4960447;28;20078;-88
2022/09/16 02:49:06;;;;;;;0.20;0.08;;;;;;;;;;4975125;28;20070;-88
2022/09/16 02:51:44;;;;;;;0.20;0.10;;;;;;;;;;4974618;28;20133;-88
2022/09/16 02:54:29;;;;;;;0.20;0.10;;;;;;;;;;4979474;28;20061;-91
2022/09/16 02:56:56;;;;;;;0.20;0.10;;;;;;;;;;4978252;28;20114;-90
2022/09/16 02:59:29;;;;;;;0.20;0.10;;;;;;;;;;4956131;28;20046;-91
2022/09/16 03:02:05;;;;;;;0.20;0.10;;;;;;;;;;4978223;28;20062;-91
2022/09/16 03:04:35;;;;;;;0.20;0.05;;;;;;;;;;4981563;28;20051;-89
2022/09/16 03:07:02;;;;;;;0.20;0.10;;;;;;;;;;4965770;28;20048;-89
2022/09/16 03:09:28;;;;;;;0.20;0.00;;;;;;;;;;4975254;28;20419;-84
2022/09/16 03:12:04;;;;;;;0.20;0.10;;;;;;;;;;4948889;28;20172;-89
2022/09/16 03:14:43;;;;;;;0.20;0.10;;;;;;;;;;4973892;28;20122;-86
2022/09/16 03:17:21;;;;;;;0.20;0.10;;;;;;;;;;4975002;28;20405;-85
2022/09/16 03:20:10;;;;;;;0.20;0.10;;;;;;;;;;4963861;28;20525;-87
2022/09/16 03:22:42;;;;;;;0.20;0.00;;;;;;;;;;4980628;28;20050;-84
2022/09/16 03:25:12;;;;;;;0.20;0.10;;;;;;;;;;4978177;28;20045;-86
2022/09/16 03:27:48;;;;;;;0.20;0.10;;;;;;;;;;4976478;28;20050;-92
2022/09/16 03:30:14;;;;;;;0.20;0.10;;;;;;;;;;4960363;28;20046;-88
2022/09/16 03:32:44;;;;;;;0.20;0.10;;;;;;;;;;4956265;28;21345;-91
2022/09/16 03:35:24;;;;;;;0.20;0.10;;;;;;;;;;4952949;28;20061;-90
2022/09/16 03:37:51;;;;;;;0.20;0.10;;;;;;;;;;4976410;28;20064;-86
2022/09/16 03:40:18;;;;;;;0.20;0.10;;;;;;;;;;4962340;28;20551;-88
2022/09/16 03:42:44;;;;;;;0.20;0.00;;;;;;;;;;4965809;28;20038;-90
2022/09/16 03:45:14;;;;;;;0.20;0.10;;;;;;;;;;4975912;28;20038;-91
2022/09/16 03:47:40;;;;;;;0.20;0.10;;;;;;;;;;4972110;28;20038;-87
2022/09/16 03:50:06;;;;;;;0.20;0.10;;;;;;;;;;4965209;28;20066;-87
2022/09/16 03:52:32;;;;;;;0.20;0.10;;;;;;;;;;4978114;28;20121;-87
2022/09/16 03:54:58;;;;;;;0.20;0.10;;;;;;;;;;4953597;28;20078;-87
2022/09/16 03:57:26;;;;;;;0.20;0.10;;;;;;;;;;4958782;28;20046;-86
2022/09/16 03:59:52;;;;;;;0.20;0.10;;;;;;;;;;4970589;28;20043;-87
2022/09/16 04:02:18;;;;;;;0.20;0.00;;;;;;;;;;4976330;28;20050;-86
2022/09/16 04:04:45;;;;;;;0.20;0.10;;;;;;;;;;4945366;28;20043;-87
2022/09/16 04:07:11;;;;;;;0.20;0.10;;;;;;;;;;4956956;28;20049;-88
2022/09/16 04:09:37;;;;;;;0.20;0.10;;;;;;;;;;4949118;28;20038;-85
2022/09/16 04:12:06;;;;;;;0.20;0.10;;;;;;;;;;4975614;28;20079;-85
2022/09/16 04:14:32;;;;;;;0.20;0.05;;;;;;;;;;4970276;28;20054;-88
2022/09/16 04:16:58;;;;;;;0.20;0.10;;;;;;;;;;4974932;28;20418;-89
2022/09/16 04:19:24;;;;;;;0.20;0.00;;;;;;;;;;4977456;28;20069;-88
2022/09/16 04:21:50;;;;;;;0.20;0.10;;;;;;;;;;4943832;28;20598;-88
2022/09/16 04:24:16;;;;;;;0.20;0.10;;;;;;;;;;4960643;28;20043;-89
2022/09/16 04:26:43;;;;;;;0.20;0.10;;;;;;;;;;4962558;28;20066;-90
2022/09/16 04:29:09;;;;;;;0.20;0.10;;;;;;;;;;4961574;28;20031;-91
2022/09/16 04:31:35;;;;;;;0.20;0.10;;;;;;;;;;4966294;28;20045;-87
2022/09/16 04:34:02;;;;;;;0.20;0.10;;;;;;;;;;4961479;28;20042;-86
2022/09/16 04:36:28;;;;;;;0.20;0.00;;;;;;;;;;4950704;28;20049;-89
2022/09/16 04:38:54;;;;;;;0.20;0.05;;;;;;;;;;4954742;28;20069;-88
2022/09/16 04:41:25;;;;;;;0.20;0.10;;;;;;;;;;4945444;28;20039;-85
2022/09/16 04:43:52;;;;;;;0.20;0.10;;;;;;;;;;4978748;28;20600;-86
2022/09/16 04:46:18;;;;;;;0.20;0.10;;;;;;;;;;4974283;28;20062;-91
2022/09/16 04:48:47;;;;;;;0.20;0.05;;;;;;;;;;4973368;28;20126;-89
2022/09/16 04:51:13;;;;;;;0.20;0.10;;;;;;;;;;4974690;28;20046;-87
2022/09/16 04:53:42;;;;;;;0.20;0.10;;;;;;;;;;4960274;28;20126;-88
2022/09/16 04:56:14;;;;;;;0.20;0.10;;;;;;;;;;4965661;28;20057;-91
2022/09/16 04:58:47;;;;;;;0.20;0.10;;;;;;;;;;4965646;28;20042;-90
2022/09/16 05:01:17;;;;;;;0.20;0.10;;;;;;;;;;4969774;28;20042;-89
2022/09/16 05:03:44;;;;;;;0.20;0.10;;;;;;;;;;4952870;28;20592;-92
2022/09/16 05:06:12;;;;;;;0.20;0.10;;;;;;;;;;4978461;28;20038;-90
2022/09/16 05:08:42;;;;;;;0.20;0.10;;;;;;;;;;4963431;28;20042;-89
2022/09/16 05:11:10;;;;;;;0.20;0.10;;;;;;;;;;4969739;28;20049;-89
2022/09/16 05:13:45;;;;;;;0.20;0.10;;;;;;;;;;4974718;28;20409;-87
2022/09/16 05:16:13;;;;;;;0.20;0.10;;;;;;;;;;4972981;28;20112;-89
2022/09/16 05:18:58;;;;;;;0.20;0.10;;;;;;;;;;4958328;28;20031;-90
2022/09/16 05:21:30;;;;;;;0.20;0.10;;;;;;;;;;4961878;28;20668;-87
2022/09/16 05:27:21;;;;;;;0.20;0.10;;;;;;;;;;4978975;28;20077;-88
2022/09/16 05:29:53;;;;;;;0.20;0.10;;;;;;;;;;4972471;28;20062;-90
2022/09/16 05:35:40;;;;;;;0.20;0.10;;;;;;;;;;4968914;28;20046;-88
2022/09/16 05:45:56;;;;;;;0.20;0.10;;;;;;;;;;4966840;28;20046;-90
2022/09/16 05:57:51;;;;;;;0.20;0.10;;;;;;;;;;4900520;29;20068;-89
2022/09/16 06:00:33;;;;;;;0.20;0.10;;;;;;;;;;4954029;28;20050;-89
2022/09/16 06:02:59;;;;;;;0.20;0.10;;;;;;;;;;4980035;28;20489;-88
2022/09/16 06:08:46;;;;;;;0.20;0.10;;;;;;;;;;4971287;28;20057;-90
2022/09/16 06:11:16;;;;;;;0.20;0.10;;;;;;;;;;4959625;28;20050;-87
2022/09/16 06:13:54;;;;;;;;;;;;;;;;;;;;;
2022/09/16 06:16:27;;;;;;;0.20;0.10;;;;;;;;;;4972677;28;20135;-88
2022/09/16 06:19:31;;;;;;;0.20;0.10;;;;;;;;;;4965319;28;20104;-89
2022/09/16 06:22:18;;;;;;;0.20;0.10;;;;;;;;;;4943234;28;20054;-86
2022/09/16 06:24:56;;;;;;;0.20;0.10;;;;;;;;;;4946181;28;20038;-88
2022/09/16 06:27:35;;;;;;;0.20;0.10;;;;;;;;;;4941118;28;20082;-87
2022/09/16 06:30:01;;;;;;;0.20;0.10;;;;;;;;;;4997381;22;20104;-82
2022/09/16 06:32:30;;;;;;;0.20;0.00;;;;;;;;;;4982813;28;20049;-81
2022/09/16 06:34:56;;;;;;;0.20;0.10;;;;;;;;;;4961996;28;20065;-82
2022/09/16 06:37:22;;;;;;;0.20;0.10;;;;;;;;;;4982617;28;20092;-81
2022/09/16 06:39:48;;;;;;;0.20;0.10;;;;;;;;;;4980415;28;20041;-81
2022/09/16 06:42:14;;;;;;;0.20;0.10;;;;;;;;;;4983546;28;20088;-81
2022/09/16 06:44:40;;;;;;;0.20;0.10;;;;;;;;;;4962680;28;20066;-81
2022/09/16 06:47:06;;;;;;;0.20;0.10;;;;;;;;;;4966337;28;20120;-82
2022/09/16 06:49:32;;;;;;;0.20;0.08;;;;;;;;;;4954464;28;20033;-83
2022/09/16 06:51:58;;;;;;;0.20;0.10;;;;;;;;;;4965247;28;20143;-82
2022/09/16 06:54:24;;;;;;;0.20;0.00;;;;;;;;;;4974016;28;20111;-81
2022/09/16 06:56:50;;;;;;;0.20;0.10;;;;;;;;;;4981557;28;20053;-83
2022/09/16 06:59:16;;;;;;;0.20;0.10;;;;;;;;;;4970907;28;20220;-82
2022/09/16 07:01:43;;;;;;;0.20;0.10;;;;;;;;;;4977803;28;20986;-83
2022/09/16 07:04:11;;;;;;;0.20;0.10;;;;;;;;;;4969724;28;20144;-82
2022/09/16 07:06:38;;;;;;;0.20;0.10;;;;;;;;;;4972729;28;20052;-84
2022/09/16 07:09:04;;;;;;;0.20;0.10;;;;;;;;;;4961333;28;20050;-83
2022/09/16 07:11:31;;;;;;;0.20;0.05;;;;;;;;;;4988649;28;20091;-83
2022/09/16 07:13:59;;;;;;;0.20;0.10;;;;;;;;;;4988679;28;20077;-85
2022/09/16 07:16:25;;;;;;;0.20;0.10;;;;;;;;;;4989271;28;20053;-83
2022/09/16 07:18:52;;;;;;;0.20;0.10;;;;;;;;;;4984697;28;20125;-83
2022/09/16 07:21:19;;;;;;;0.20;0.10;;;;;;;;;;4981224;28;20779;-84
2022/09/16 07:23:46;;;;;;;0.20;0.10;;;;;;;;;;4990447;28;20052;-84
2022/09/16 07:26:13;;;;;;;0.20;0.10;;;;;;;;;;4990616;28;20034;-84
2022/09/16 07:28:40;;;;;;;0.20;0.10;;;;;;;;;;4980866;28;20073;-83
2022/09/16 07:31:15;;;;;;;1.95;0.40;;;;;;;;;;4987727;28;20046;-83
2022/09/16 07:33:43;;;;;;;0.20;0.05;;;;;;;;;;4959012;28;20069;-82
2022/09/16 07:36:10;;;;;;;0.20;0.10;;;;;;;;;;4973218;28;20068;-85
2022/09/16 07:38:36;;;;;;;0.20;0.10;;;;;;;;;;4984876;28;20073;-85
2022/09/16 07:41:10;;;;;;;0.20;0.10;;;;;;;;;;5000396;28;20096;-84
2022/09/16 07:43:37;;;;;;;0.20;0.10;;;;;;;;;;4973106;28;20069;-85
2022/09/16 07:46:03;;;;;;;0.20;0.05;;;;;;;;;;4987399;28;20033;-82
2022/09/16 07:48:30;;;;;;;0.20;0.10;;;;;;;;;;4984520;28;20083;-83
2022/09/16 07:51:00;;;;;;;0.20;0.10;;;;;;;;;;4969187;28;20045;-82
2022/09/16 07:53:28;;;;;;;0.20;0.10;;;;;;;;;;4976441;28;20048;-83
2022/09/16 07:55:55;;;;;;;0.20;0.10;;;;;;;;;;4977467;28;20041;-82
2022/09/16 07:58:21;;;;;;;0.20;0.10;;;;;;;;;;4988903;28;20119;-84
2022/09/16 08:00:48;;;;;;;0.20;0.10;;;;;;;;;;4980120;28;20048;-83
2022/09/16 08:03:15;;;;;;;0.20;0.10;;;;;;;;;;4979170;28;20045;-84
2022/09/16 08:05:41;;;;;;;0.20;0.10;;;;;;;;;;4976043;28;20061;-82
2022/09/16 08:08:07;;;;;;;0.20;0.05;;;;;;;;;;4980632;28;20049;-83
2022/09/16 08:10:35;;;;;;;0.20;0.10;;;;;;;;;;4991511;28;20045;-82
2022/09/16 08:13:01;;;;;;;0.20;0.10;;;;;;;;;;4991438;28;20049;-82
2022/09/16 08:15:27;;;;;;;0.20;0.10;;;;;;;;;;4974148;28;20060;-83
2022/09/16 08:17:54;;;;;;;0.20;0.10;;;;;;;;;;4977022;28;20046;-84
2022/09/16 08:20:20;;;;;;;0.20;0.10;;;;;;;;;;4974645;28;20068;-82
2022/09/16 08:22:46;;;;;;;0.20;0.10;;;;;;;;;;4992232;28;20051;-84
2022/09/16 08:25:12;;;;;;;0.20;0.10;;;;;;;;;;4990021;28;20275;-85
2022/09/16 08:27:38;;;;;;;0.20;0.10;;;;;;;;;;4981638;28;20472;-84
2022/09/16 08:30:04;;;;;;;0.20;0.10;;;;;;;;;;4990889;28;20484;-84
2022/09/16 08:32:31;;;;;;;0.20;0.10;;;;;;;;;;4964220;28;20041;-83
2022/09/16 08:34:57;;;;;;;0.20;0.10;;;;;;;;;;4995630;28;20135;-84
2022/09/16 08:37:23;;;;;;;0.20;0.10;;;;;;;;;;5010154;28;20691;-85
2022/09/16 08:39:50;;;;;;;0.20;0.10;;;;;;;;;;4995023;28;20516;-85
2022/09/16 08:42:19;;;;;;;0.20;0.10;;;;;;;;;;4961855;28;20188;-82
2022/09/16 08:44:49;;;;;;;0.20;0.10;;;;;;;;;;4991518;28;20462;-84
2022/09/16 08:47:22;;;;;;;0.20;0.10;;;;;;;;;;5011629;28;20045;-85
2022/09/16 08:49:49;;;;;;;;;;;;;;;;;;5007863;28;20132;-81
2022/09/16 08:52:16;;;;;;;0.20;0.10;;;;;;;;;;4977296;28;20482;-86
2022/09/16 08:54:44;;;;;;;0.20;0.10;;;;;;;;;;4980333;28;20061;-82
2022/09/16 08:57:15;;;;;;;0.20;0.10;;;;;;;;;;4980982;28;20033;-84
2022/09/16 08:59:44;;;;;;;0.20;0.10;;;;;;;;;;4977027;28;20045;-83
2022/09/16 09:02:18;;;;;;;0.20;0.10;;;;;;;;;;4981567;28;20038;-84
2022/09/16 09:04:45;;;;;;;0.20;0.10;;;;;;;;;;4981549;28;20073;-82
2022/09/16 09:07:29;;;;;;;0.20;0.10;;;;;;;;;;4993550;28;20132;-87
2022/09/16 09:09:55;;;;;;;0.20;0.10;;;;;;;;;;4986682;28;20033;-84
2022/09/16 09:12:21;;;;;;;0.20;0.10;;;;;;;;;;4980721;28;20037;-85
2022/09/16 09:15:04;;;;;;;0.20;0.10;;;;;;;;;;5003173;28;20577;-85
2022/09/16 09:17:49;;;;;;;0.20;0.10;;;;;;;;;;5001721;28;20049;-87
2022/09/16 09:20:15;;;;;;;0.20;0.10;;;;;;;;;;4984599;28;20042;-81
2022/09/16 09:22:54;;;;;;;0.20;0.10;;;;;;;;;;4985955;28;20030;-83
2022/09/16 09:25:40;;;;;;;0.20;0.10;;;;;;;;;;4995792;28;20734;-84
2022/09/16 09:28:25;;;;;;;0.20;0.10;;;;;;;;;;4952896;28;20087;-84
2022/09/16 09:31:12;;;;;;;0.20;0.10;;;;;;;;;;4980437;28;20435;-85
2022/09/16 09:33:54;;;;;;;0.20;0.10;;;;;;;;;;4986822;28;20079;-84
2022/09/16 09:36:43;;;;;;;0.20;0.10;;;;;;;;;;5003679;28;20056;-83
2022/09/16 09:39:27;;;;;;;0.20;0.10;;;;;;;;;;4976655;28;20096;-82
2022/09/16 09:42:31;;;;;;;0.20;0.10;;;;;;;;;;4995428;28;23073;-84
2022/09/16 09:44:57;;;;;;;0.20;0.10;;;;;;;;;;4972647;28;20051;-88
2022/09/16 09:47:42;;;;;;;0.20;0.08;;;;;;;;;;5002697;28;20038;-84
2022/09/16 09:50:14;;;;;;;0.20;0.08;;;;;;;;;;5004507;28;20041;-84
2022/09/16 09:52:43;;;;;;;0.20;0.10;;;;;;;;;;4988813;28;20049;-82
2022/09/16 09:55:17;;;;;;;0.20;0.20;;;;;;;;;;4992845;28;20066;-84
2022/09/16 09:57:47;;;;;;;0.20;0.10;;;;;;;;;;4995040;28;20751;-87
2022/09/16 10:00:13;;;;;;;0.20;0.10;;;;;;;;;;4991320;28;20601;-81
2022/09/16 10:02:40;;;;;;;0.20;0.10;;;;;;;;;;4990820;28;20120;-85
2022/09/16 10:05:14;;;;;;;0.20;0.10;;;;;;;;;;4990541;28;20400;-85
2022/09/16 10:07:40;;;;;;;0.20;0.10;;;;;;;;;;4984591;28;20037;-84
2022/09/16 10:10:19;;;;;;;0.20;0.08;;;;;;;;;;4976063;28;20046;-89
2022/09/16 10:12:45;;;;;;;0.20;0.10;;;;;;;;;;5005304;28;20053;-85
2022/09/16 10:15:22;;;;;;;0.20;0.10;;;;;;;;;;4993237;28;20045;-84
2022/09/16 10:17:52;;;;;;;0.20;0.10;;;;;;;;;;5009416;28;20041;-86
2022/09/16 10:20:29;;;;;;;0.20;0.10;;;;;;;;;;5008577;28;20112;-83
2022/09/16 10:23:00;;;;;;;0.20;0.10;;;;;;;;;;4990569;28;20045;-85
2022/09/16 10:25:33;;;;;;;0.20;0.10;;;;;;;;;;5008139;28;20053;-86
2022/09/16 10:28:04;;;;;;;0.20;0.00;;;;;;;;;;4998260;28;20041;-85
2022/09/16 10:30:45;;;;;;;0.20;0.00;;;;;;;;;;5001450;28;20167;-87
2022/09/16 10:33:16;;;;;;;0.20;0.10;;;;;;;;;;5005656;28;20054;-86
2022/09/16 10:35:50;;;;;;;0.20;0.10;;;;;;;;;;4991253;28;20504;-87
2022/09/16 10:38:20;;;;;;;0.20;0.10;;;;;;;;;;5012847;28;20059;-89
2022/09/16 10:41:10;;;;;;;0.20;0.00;;;;;;;;;;4995282;28;20041;-86
2022/09/16 10:43:38;;;;;;;0.20;0.10;;;;;;;;;;4982865;28;20054;-83
2022/09/16 10:46:05;;;;;;;0.20;0.10;;;;;;;;;;5026726;28;20100;-86
2022/09/16 10:48:31;;;;;;;0.20;0.10;;;;;;;;;;4991558;28;20049;-84
2022/09/16 10:50:59;;;;;;;0.20;0.10;;;;;;;;;;5003310;28;20455;-85
2022/09/16 10:53:33;;;;;;;0.20;0.10;;;;;;;;;;5004794;28;20037;-85
2022/09/16 10:56:02;;;;;;;0.20;0.05;;;;;;;;;;4990947;28;20091;-83
2022/09/16 10:58:28;;;;;;;0.20;0.10;;;;;;;;;;5004869;28;20479;-85
2022/09/16 11:00:58;;;;;;;0.20;0.10;;;;;;;;;;4999059;28;20042;-82
2022/09/16 11:03:33;;;;;;;0.20;0.10;;;;;;;;;;4985901;28;20033;-83
2022/09/16 11:06:22;;;;;;;0.20;0.10;;;;;;;;;;4986641;28;20099;-85
2022/09/16 11:08:54;;;;;;;0.20;0.05;;;;;;;;;;4985726;28;20505;-85
2022/09/16 11:11:30;;;;;;;0.20;0.10;;;;;;;;;;5008942;28;20094;-88
2022/09/16 11:14:15;;;;;;;0.20;0.10;;;;;;;;;;4993436;28;20045;-86
2022/09/16 11:16:47;;;;;;;0.20;0.10;;;;;;;;;;5000773;28;20727;-84
2022/09/16 11:19:19;;;;;;;0.20;0.10;;;;;;;;;;4991785;28;20487;-85
2022/09/16 11:21:56;;;;;;;0.20;0.10;;;;;;;;;;4992417;28;20073;-83
2022/09/16 11:24:30;;;;;;;0.20;0.10;;;;;;;;;;4989275;28;20123;-83
2022/09/16 11:27:32;;;;;;;0.20;0.10;;;;;;;;;;4989845;28;20590;-85
2022/09/16 11:30:13;;;;;;;0.20;0.10;;;;;;;;;;5002572;28;20046;-85
2022/09/16 11:33:00;;;;;;;0.20;0.00;;;;;;;;;;5000192;28;20060;-82
2022/09/16 11:35:33;;;;;;;0.20;0.10;;;;;;;;;;5020999;28;20037;-86
2022/09/16 11:38:24;;;;;;;0.20;0.10;;;;;;;;;;5000563;28;20166;-82
2022/09/16 11:41:19;;;;;;;0.20;0.10;;;;;;;;;;5000402;28;20404;-84
2022/09/16 11:43:48;;;;;;;0.20;0.10;;;;;;;;;;5003128;28;20057;-83
2022/09/16 11:46:26;;;;;;;0.20;0.10;;;;;;;;;;4999424;28;20056;-86
2022/09/16 11:48:59;;;;;;;0.20;0.10;;;;;;;;;;5002338;28;20129;-84
2022/09/16 11:51:41;;;;;;;0.20;0.10;;;;;;;;;;5012857;28;20038;-84
2022/09/16 11:54:13;;;;;;;0.20;0.10;;;;;;;;;;4986827;28;20084;-90
2022/09/16 11:56:39;;;;;;;0.20;0.10;;;;;;;;;;4990074;28;20044;-83
2022/09/16 11:59:17;;;;;;;0.20;0.10;;;;;;;;;;4999212;28;20492;-82
2022/09/16 12:01:53;;;;;;;0.20;0.10;;;;;;;;;;4987767;28;20033;-83
2022/09/16 12:04:36;;;;;;;;;;;;;;;;;;;;;
2022/09/16 12:07:17;;;;;;;0.20;0.10;;;;;;;;;;5002015;28;20037;-82
2022/09/16 12:09:43;;;;;;;0.20;0.10;;;;;;;;;;5004191;28;20044;-83
2022/09/16 12:12:17;;;;;;;0.20;0.10;;;;;;;;;;4985833;28;20060;-84
2022/09/16 12:14:53;;;;;;;0.20;0.10;;;;;;;;;;5012641;28;20045;-81
2022/09/16 12:17:28;;;;;;;0.20;0.10;;;;;;;;;;4997354;28;20049;-90
2022/09/16 12:19:57;;;;;;;0.20;0.10;;;;;;;;;;5014645;28;20053;-84
2022/09/16 12:22:30;;;;;;;0.20;0.10;;;;;;;;;;4999091;28;20037;-85
2022/09/16 12:25:12;;;;;;;0.20;0.10;;;;;;;;;;4987094;28;20607;-84
2022/09/16 12:27:44;;;;;;;0.20;0.10;;;;;;;;;;4983074;28;20041;-86
2022/09/16 12:30:26;;;;;;;0.20;0.10;;;;;;;;;;5005529;23;20148;-85
2022/09/16 12:32:52;;;;;;;;;;;;;;;;;;4958126;28;20047;-86
2022/09/16 12:35:25;;;;;;;0.20;0.10;;;;;;;;;;4957672;28;20675;-85
2022/09/16 12:37:52;;;;;;;0.20;0.10;;;;;;;;;;4947747;28;20050;-85
2022/09/16 12:40:24;;;;;;;0.20;0.10;;;;;;;;;;4943537;28;20043;-86
2022/09/16 12:42:50;;;;;;;0.20;0.10;;;;;;;;;;4960458;28;20564;-86
2022/09/16 12:48:51;;;;;;;0.20;0.10;;;;;;;;;;4940673;28;20545;-84
2022/09/16 12:51:17;;;;;;;0.20;0.10;;;;;;;;;;4943944;28;20577;-85
2022/09/16 12:53:52;;;;;;;0.20;0.10;;;;;;;;;;4974922;28;20434;-84
2022/09/16 12:56:37;;;;;;;0.20;0.10;;;;;;;;;;4960473;28;20043;-85
2022/09/16 12:59:03;;;;;;;0.20;0.10;;;;;;;;;;4946913;28;20082;-87
2022/09/16 13:01:29;;;;;;;0.20;0.10;;;;;;;;;;4962637;28;20047;-84
2022/09/16 13:03:57;;;;;;;0.20;0.10;;;;;;;;;;4956922;28;20126;-81
2022/09/16 13:06:26;;;;;;;0.20;0.10;;;;;;;;;;4944114;28;20031;-86
2022/09/16 13:08:53;;;;;;;0.20;0.10;;;;;;;;;;4961419;28;20039;-84
2022/09/16 13:11:24;;;;;;;0.20;0.10;;;;;;;;;;4946147;28;20042;-84
2022/09/16 13:13:53;;;;;;;0.20;0.10;;;;;;;;;;4957692;28;20039;-84
2022/09/16 13:16:30;;;;;;;0.20;0.10;;;;;;;;;;4940424;28;20149;-86
2022/09/16 13:19:05;;;;;;;0.20;0.10;;;;;;;;;;4953564;28;20031;-84
2022/09/16 13:21:39;;;;;;;0.20;0.10;;;;;;;;;;4961249;28;20107;-86
2022/09/16 13:24:27;;;;;;;0.20;0.10;;;;;;;;;;4956492;28;20058;-85
2022/09/16 13:26:56;;;;;;;0.20;0.10;;;;;;;;;;4935251;28;20042;-83
2022/09/16 13:29:41;;;;;;;0.20;0.05;;;;;;;;;;4938939;28;20043;-82
2022/09/16 13:32:24;;;;;;;0.20;0.10;;;;;;;;;;4959018;28;20031;-84
2022/09/16 13:34:59;;;;;;;0.20;0.10;;;;;;;;;;4943064;28;20453;-87
2022/09/16 13:37:40;;;;;;;0.20;0.10;;;;;;;;;;4955158;28;20034;-83
2022/09/16 13:40:39;;;;;;;0.20;0.10;;;;;;;;;;4954728;28;20117;-85
2022/09/16 13:43:08;;;;;;;0.20;0.10;;;;;;;;;;4940721;28;20055;-84
2022/09/16 13:45:44;;;;;;;0.20;0.00;;;;;;;;;;4956671;28;20058;-83
2022/09/16 13:48:28;;;;;;;0.20;0.10;;;;;;;;;;4960073;28;20077;-82
2022/09/16 13:51:19;;;;;;;0.20;0.10;;;;;;;;;;4928166;28;20042;-83
2022/09/16 13:58:02;;;;;;;0.20;0.10;;;;;;;;;;4958261;28;20046;-84
2022/09/16 14:00:28;;;;;;;0.20;0.10;;;;;;;;;;4952786;28;20047;-85
2022/09/16 14:03:19;;;;;;;0.20;0.10;;;;;;;;;;4959987;28;20144;-83
2022/09/16 14:06:05;;;;;;;0.20;0.10;;;;;;;;;;4950879;28;20050;-80
2022/09/16 14:09:05;;;;;;;0.20;0.10;;;;;;;;;;4964310;28;20066;-86
2022/09/16 14:11:34;;;;;;;0.20;0.10;;;;;;;;;;4947423;28;20054;-82
2022/09/16 14:14:02;;;;;;;0.20;0.10;;;;;;;;;;4964804;28;20220;-85
2022/09/16 14:16:35;;;;;;;0.20;0.10;;;;;;;;;;4944400;28;20110;-84
2022/09/16 14:19:31;;;;;;;0.20;0.00;;;;;;;;;;4942377;22;20069;-85
2022/09/16 14:22:26;;;;;;;0.20;0.10;;;;;;;;;;4983236;28;20133;-84
2022/09/16 14:25:33;;;;;;;0.20;0.10;;;;;;;;;;4970423;28;20065;-84
2022/09/16 14:28:18;;;;;;;3.63;0.45;;;;;;;;;;4971065;28;20192;-84
2022/09/16 14:31:11;;;;;;;0.20;0.10;;;;;;;;;;4981212;28;20453;-85
2022/09/16 14:34:13;;;;;;;;;;;;;;;;;;;;;
2022/09/16 14:37:01;;;;;;;0.20;0.10;;;;;;;;;;5005848;23;20103;-89
2022/09/16 14:39:56;;;;;;;0.20;0.10;;;;;;;;;;5004371;28;20095;-86
2022/09/16 14:42:36;;;;;;;0.20;0.10;;;;;;;;;;5008381;28;20693;-89
2022/09/16 14:45:09;;;;;;;0.20;0.10;;;;;;;;;;4986085;28;20176;-87
2022/09/16 14:47:44;;;;;;;0.20;0.10;;;;;;;;;;5007613;28;20072;-85
2022/09/16 14:53:55;;;;;;;;;;;;;;;;;;;;;
2022/09/16 14:56:57;;;;;;;;;;;;;;;;;;4922998;28;20064;-88
2022/09/16 14:59:51;;;;;;;0.20;0.10;;;;;;;;;;4935040;28;19953;-86
2022/09/16 15:02:36;;;;;;;;;;;;;;;;;;;;;
2022/09/16 15:08:33;;;;;;;0.20;0.10;;;;;;;;;;4872033;29;20629;-84
2022/09/16 15:11:01;;;;;;;0.20;0.10;;;;;;;;;;4861017;29;20083;-87
2022/09/16 15:13:46;;;;;;;0.20;0.10;;;;;;;;;;4878204;28;20398;-87
2022/09/16 15:16:19;;;;;;;0.20;0.10;;;;;;;;;;4913062;28;20093;-88
2022/09/16 15:19:02;;;;;;;0.20;0.10;;;;;;;;;;4934604;28;20522;-87
2022/09/16 15:21:36;;;;;;;0.20;0.00;;;;;;;;;;4995648;28;20042;-89
2022/09/16 15:24:04;;;;;;;0.20;0.10;;;;;;;;;;4976995;28;20037;-87
2022/09/16 15:26:45;;;;;;;0.20;0.10;;;;;;;;;;4999254;28;20041;-86
2022/09/16 15:29:34;;;;;;;0.20;0.10;;;;;;;;;;4976347;28;21783;-85
2022/09/16 15:32:35;;;;;;;0.20;0.10;;;;;;;;;;5001119;28;20057;-88
2022/09/16 15:35:23;;;;;;;0.20;0.10;;;;;;;;;;4902643;29;20115;-86
2022/09/16 15:38:12;;;;;;;0.20;0.10;;;;;;;;;;4997960;28;20045;-88
2022/09/16 15:40:41;;;;;;;0.20;0.10;;;;;;;;;;5003592;28;21083;-87
2022/09/16 15:43:13;;;;;;;0.20;0.10;;;;;;;;;;4969221;28;20046;-87
2022/09/16 15:45:43;;;;;;;0.20;0.10;;;;;;;;;;4973501;28;20473;-90
2022/09/16 15:48:22;;;;;;;0.20;0.10;;;;;;;;;;4979306;28;20045;-90
2022/09/16 15:50:48;;;;;;;0.20;0.10;;;;;;;;;;4994013;28;20046;-87
2022/09/16 15:53:37;;;;;;;0.20;0.10;;;;;;;;;;4979422;28;20034;-89
2022/09/16 15:56:16;;;;;;;0.25;0.13;;;;;;;;;;4976865;28;20556;-88
2022/09/16 15:58:48;;;;;;;0.20;0.10;;;;;;;;;;4980287;28;20502;-88
2022/09/16 16:01:37;;;;;;;0.20;0.10;;;;;;;;;;4991573;28;20171;-89
2022/09/16 16:04:04;;;;;;;0.20;0.10;;;;;;;;;;4991995;28;20057;-88
2022/09/16 16:06:45;;;;;;;0.20;0.10;;;;;;;;;;4998756;28;20065;-89
2022/09/16 16:09:33;;;;;;;0.20;0.10;;;;;;;;;;4996149;28;20041;-84
2022/09/16 16:12:18;;;;;;;0.20;0.10;;;;;;;;;;4981049;28;20064;-87
2022/09/16 16:14:50;;;;;;;0.20;0.10;;;;;;;;;;4977543;28;20058;-87
2022/09/16 16:17:25;;;;;;;0.20;0.10;;;;;;;;;;4984915;28;20033;-90